Time;durP1;ratioP1;P1;durP2;ratioP2;P2;SDS_P1;SDS_P2;PMS_P1;PMS_P2;Temp;Humidity;BMP_temperature;BMP_pressure;BME280_temperature;BME280_humidity;BME280_pressure;Samples;Min_cycle;Max_cycle;Signal;HPM_P1;HPM_P2
2022/03/21 00:00:44;;;;;;;26.37;15.03;;;;;;;6.88;59.83;99924.75;5009823;28;20482;-50
2022/03/21 00:03:13;;;;;;;24.03;14.83;;;;;;;6.67;61.10;99924.28;4997996;28;20201;-53
2022/03/21 00:05:40;;;;;;;26.63;15.57;;;;;;;6.53;59.87;99927.72;5007107;28;20215;-53
2022/03/21 00:08:11;;;;;;;28.63;14.67;;;;;;;6.44;59.67;99923.91;5002548;28;20259;-50
2022/03/21 00:10:41;;;;;;;27.43;14.70;;;;;;;6.30;60.09;99928.19;4998238;28;20368;-51
2022/03/21 00:13:09;;;;;;;27.93;15.37;;;;;;;6.29;61.43;99925.66;4996118;28;20289;-53
2022/03/21 00:15:36;;;;;;;25.70;14.97;;;;;;;6.19;61.93;99930.59;5005335;28;20728;-55
2022/03/21 00:18:04;;;;;;;28.37;14.57;;;;;;;6.12;62.45;99929.28;5010308;28;20672;-52
2022/03/21 00:20:33;;;;;;;25.00;14.33;;;;;;;6.09;61.11;99924.25;5010837;28;20218;-51
2022/03/21 00:23:00;;;;;;;27.40;15.07;;;;;;;6.10;61.22;99924.16;5010685;28;20245;-50
2022/03/21 00:25:29;;;;;;;26.73;14.67;;;;;;;6.12;60.80;99921.50;4998308;28;20603;-53
2022/03/21 00:27:56;;;;;;;24.87;14.30;;;;;;;6.16;59.98;99916.03;4991509;28;20539;-51
2022/03/21 00:30:23;;;;;;;24.77;14.30;;;;;;;6.20;60.68;99925.28;4991059;28;20198;-51
2022/03/21 00:32:50;;;;;;;23.13;13.97;;;;;;;6.29;59.92;99916.16;4991056;28;20246;-54
2022/03/21 00:35:17;;;;;;;23.77;14.40;;;;;;;6.41;59.63;99918.91;4989747;28;20569;-54
2022/03/21 00:37:45;;;;;;;26.53;14.67;;;;;;;6.46;59.29;99919.47;4991089;28;20242;-54
2022/03/21 00:40:13;;;;;;;22.53;13.53;;;;;;;6.52;58.76;99919.09;4990911;28;20679;-54
2022/03/21 00:42:43;;;;;;;25.50;14.47;;;;;;;6.52;59.68;99915.69;5001953;28;20193;-51
2022/03/21 00:45:14;;;;;;;24.07;14.10;;;;;;;6.44;59.76;99921.31;5009984;28;20216;-53
2022/03/21 00:47:42;;;;;;;21.77;13.67;;;;;;;6.35;59.14;99918.38;5010449;28;20188;-53
2022/03/21 00:50:11;;;;;;;25.13;14.57;;;;;;;6.23;60.29;99916.50;5010135;28;20738;-53
2022/03/21 00:52:42;;;;;;;22.73;13.57;;;;;;;6.18;59.79;99913.34;5010715;28;20269;-54
2022/03/21 00:55:10;;;;;;;23.70;14.27;;;;;;;6.07;60.78;99919.16;5008164;28;20206;-54
2022/03/21 00:57:38;;;;;;;23.67;14.10;;;;;;;5.98;60.75;99915.31;5010306;28;20190;-53
2022/03/21 01:00:10;;;;;;;23.40;13.47;;;;;;;5.89;62.51;99918.44;5009749;28;20209;-52
2022/03/21 01:02:37;;;;;;;26.60;13.30;;;;;;;5.90;61.16;99914.94;5010342;28;20182;-54
2022/03/21 01:05:07;;;;;;;22.13;13.30;;;;;;;5.88;61.96;99914.19;5009597;28;20576;-52
2022/03/21 01:07:34;;;;;;;25.37;12.10;;;;;;;5.79;61.27;99917.31;5009925;28;20200;-52
2022/03/21 01:10:01;;;;;;;21.53;12.47;;;;;;;5.96;59.95;99911.13;5009188;28;20682;-51
2022/03/21 01:12:28;;;;;;;24.07;12.60;;;;;;;5.90;61.47;99922.72;5010121;28;20712;-52
2022/03/21 01:14:55;;;;;;;25.37;13.90;;;;;;;5.81;62.16;99924.09;5008950;28;20192;-52
2022/03/21 01:17:24;;;;;;;23.30;13.13;;;;;;;5.75;61.56;99921.84;5008425;28;20687;-51
2022/03/21 01:19:50;;;;;;;21.53;12.07;;;;;;;5.62;61.43;99921.69;5008775;28;20452;-49
2022/03/21 01:22:17;;;;;;;24.10;13.17;;;;;;;5.55;61.57;99920.38;5011059;28;20207;-52
2022/03/21 01:24:44;;;;;;;23.80;13.00;;;;;;;5.59;61.63;99920.13;5004186;28;20285;-53
2022/03/21 01:27:11;;;;;;;21.47;12.67;;;;;;;5.58;63.19;99920.19;4992010;28;20274;-52
2022/03/21 01:29:37;;;;;;;23.10;12.37;;;;;;;5.67;64.71;99919.69;4990762;28;20264;-53
2022/03/21 01:32:05;;;;;;;22.33;12.70;;;;;;;5.59;64.26;99925.31;4990307;28;20201;-52
2022/03/21 01:34:33;;;;;;;17.97;11.00;;;;;;;5.56;62.72;99919.44;4991019;28;20186;-53
2022/03/21 01:37:00;;;;;;;22.23;12.33;;;;;;;5.59;62.65;99927.91;4992150;28;20190;-51
2022/03/21 01:39:27;;;;;;;22.20;11.87;;;;;;;5.78;62.37;99932.03;4991233;28;20276;-53
2022/03/21 01:41:54;;;;;;;20.07;11.93;;;;;;;5.62;62.47;99929.47;4995963;28;20295;-53
2022/03/21 01:44:21;;;;;;;21.73;11.87;;;;;;;5.60;61.92;99926.97;5010230;28;20220;-53
2022/03/21 01:46:48;;;;;;;22.30;12.00;;;;;;;5.52;63.69;99926.56;5011031;28;20190;-52
2022/03/21 01:49:15;;;;;;;18.93;11.47;;;;;;;5.40;63.81;99930.66;5011065;28;20188;-53
2022/03/21 01:51:43;;;;;;;20.77;11.53;;;;;;;5.30;64.35;99932.13;5010443;28;20209;-53
2022/03/21 01:56:56;;;;;;;22.13;11.80;;;;;;;5.30;64.56;99937.28;5010725;28;20185;-53
2022/03/21 01:59:23;;;;;;;20.60;12.23;;;;;;;5.29;64.52;99933.03;5010877;28;20270;-53
2022/03/21 02:01:50;;;;;;;24.70;12.27;;;;;;;5.21;65.43;99933.44;5010433;28;20680;-52
2022/03/21 02:04:17;;;;;;;18.57;11.60;;;;;;;5.23;63.78;99935.97;5009423;28;20675;-53
2022/03/21 02:06:46;;;;;;;24.23;12.17;;;;;;;5.15;64.18;99932.03;5009928;28;20261;-54
2022/03/21 02:09:13;;;;;;;23.20;11.70;;;;;;;5.14;63.57;99937.28;5009855;28;20197;-52
2022/03/21 02:11:40;;;;;;;20.17;11.60;;;;;;;5.21;63.42;99932.63;5009942;28;20215;-50
2022/03/21 02:14:11;;;;;;;22.57;12.03;;;;;;;5.20;64.34;99926.59;5010880;28;20181;-50
2022/03/21 02:16:40;;;;;;;18.87;11.47;;;;;;;5.12;65.34;99929.63;5010998;28;20192;-52
2022/03/21 02:19:13;;;;;;;20.47;11.77;;;;;;;5.10;64.52;99931.44;5011112;28;20185;-51
2022/03/21 02:21:53;;;;;;;21.30;11.90;;;;;;;5.15;64.05;99936.38;5010760;28;20576;-51
2022/03/21 02:24:38;;;;;;;21.70;11.37;;;;;;;5.25;64.79;99929.75;5010665;28;20640;-49
2022/03/21 02:27:08;;;;;;;21.93;12.10;;;;;;;5.22;64.29;99936.88;5010963;28;20556;-50
2022/03/21 02:29:38;;;;;;;23.40;12.00;;;;;;;5.27;64.68;99927.09;5010806;28;20192;-50
2022/03/21 02:32:06;;;;;;;22.30;12.37;;;;;;;5.19;64.77;99924.94;5010943;28;20612;-50
2022/03/21 02:34:38;;;;;;;20.87;11.30;;;;;;;5.13;64.45;99922.66;5010546;28;20185;-50
2022/03/21 02:37:07;;;;;;;22.47;11.30;;;;;;;5.20;64.46;99929.19;5011233;28;20196;-51
2022/03/21 02:39:35;;;;;;;17.57;10.97;;;;;;;5.18;64.49;99928.44;5010651;28;20681;-51
2022/03/21 02:42:03;;;;;;;21.83;11.20;;;;;;;5.03;64.83;99922.34;5010789;28;20211;-53
2022/03/21 02:44:34;;;;;;;17.87;11.17;;;;;;;5.03;66.26;99924.94;5010419;28;20192;-52
2022/03/21 02:47:01;;;;;;;24.03;12.27;;;;;;;5.02;65.44;99925.84;5011008;28;20739;-51
2022/03/21 02:49:28;;;;;;;19.90;10.80;;;;;;;4.90;66.04;99923.94;5010724;28;20196;-53
2022/03/21 02:51:59;;;;;;;20.23;10.83;;;;;;;4.93;64.92;99932.34;5010566;28;20270;-54
2022/03/21 02:54:26;;;;;;;20.33;11.00;;;;;;;4.93;64.81;99928.94;5010265;28;20239;-51
2022/03/21 02:56:56;;;;;;;19.27;11.13;;;;;;;4.95;65.89;99924.50;5010796;28;20676;-50
2022/03/21 02:59:23;;;;;;;19.70;11.17;;;;;;;4.99;65.25;99928.59;5011017;28;20185;-50
2022/03/21 03:01:54;;;;;;;20.57;11.37;;;;;;;5.01;65.50;99931.94;5010415;28;20211;-53
2022/03/21 03:04:21;;;;;;;22.00;11.40;;;;;;;4.95;65.27;99927.91;5011514;28;20256;-50
2022/03/21 03:06:48;;;;;;;22.13;11.67;;;;;;;5.04;65.79;99936.97;5014211;28;20301;-50
2022/03/21 03:09:18;;;;;;;19.33;10.87;;;;;;;4.93;67.16;99929.75;5014469;28;20200;-52
2022/03/21 03:11:45;;;;;;;18.17;10.83;;;;;;;4.89;65.66;99943.78;5013842;28;20208;-54
2022/03/21 03:14:12;;;;;;;20.53;11.47;;;;;;;4.91;66.54;99938.53;5012427;28;20197;-50
2022/03/21 03:16:40;;;;;;;18.37;10.80;;;;;;;4.90;67.25;99940.28;5014158;28;20181;-49
2022/03/21 03:19:08;;;;;;;20.67;10.33;;;;;;;4.84;67.90;99946.63;5014104;28;20184;-50
2022/03/21 03:21:37;;;;;;;21.53;11.37;;;;;;;4.84;68.06;99940.59;5013679;28;20212;-54
2022/03/21 03:24:05;;;;;;;19.50;10.93;;;;;;;4.94;66.46;99944.34;5013791;28;20239;-51
2022/03/21 03:26:32;;;;;;;18.53;11.03;;;;;;;4.99;66.39;99944.94;5013918;28;20219;-49
2022/03/21 03:28:58;;;;;;;20.80;11.03;;;;;;;4.95;66.83;99945.22;5013949;28;20182;-52
2022/03/21 03:31:26;;;;;;;20.30;10.80;;;;;;;5.04;65.97;99944.72;5011281;28;20817;-54
2022/03/21 03:33:53;;;;;;;16.83;10.63;;;;;;;5.06;66.65;99948.06;5006956;28;20248;-49
2022/03/21 03:36:22;;;;;;;21.87;10.43;;;;;;;5.08;67.71;99946.22;5009594;28;20197;-51
2022/03/21 03:38:51;;;;;;;19.00;11.13;;;;;;;5.13;67.06;99943.38;5012906;28;20576;-49
2022/03/21 03:41:19;;;;;;;15.77;10.37;;;;;;;5.23;67.72;99949.72;5012568;28;20706;-51
2022/03/21 03:43:47;;;;;;;19.67;10.60;;;;;;;5.21;68.36;99948.16;5012960;28;20624;-53
2022/03/21 03:46:14;;;;;;;20.73;11.07;;;;;;;5.23;68.59;99948.91;5012084;28;20204;-51
2022/03/21 03:48:42;;;;;;;19.77;10.80;;;;;;;5.39;66.84;99951.47;5012482;28;20272;-53
2022/03/21 03:51:09;;;;;;;17.77;10.20;;;;;;;5.36;67.47;99955.06;5012394;28;20300;-52
2022/03/21 03:53:37;;;;;;;19.47;11.37;;;;;;;5.40;66.78;99948.78;5012891;28;20203;-51
2022/03/21 03:56:06;;;;;;;17.63;10.10;;;;;;;5.38;66.11;99953.22;5012113;28;20191;-53
2022/03/21 03:58:33;;;;;;;20.97;10.43;;;;;;;5.52;66.54;99947.28;5012490;28;20228;-53
2022/03/21 04:01:00;;;;;;;18.30;10.13;;;;;;;5.43;67.46;99950.38;5008950;28;20688;-52
2022/03/21 04:03:45;;;;;;;22.17;10.90;;;;;;;5.49;67.26;99962.16;5010357;28;20196;-51
2022/03/21 04:06:12;;;;;;;19.27;10.30;;;;;;;5.54;66.19;99954.97;5012042;28;20212;-53
2022/03/21 04:08:41;;;;;;;21.43;10.57;;;;;;;5.46;66.47;99958.00;5012825;28;20196;-51
2022/03/21 04:11:08;;;;;;;18.17;10.47;;;;;;;5.44;66.01;99958.06;5011864;28;20722;-53
2022/03/21 04:13:35;;;;;;;20.90;11.20;;;;;;;5.38;67.37;99966.16;5006946;28;20648;-49
2022/03/21 04:16:02;;;;;;;18.13;9.53;;;;;;;5.34;65.84;99964.66;5009777;28;20192;-50
2022/03/21 04:18:28;;;;;;;19.60;10.77;;;;;;;5.29;66.78;99961.50;5012397;28;20189;-52
2022/03/21 04:20:55;;;;;;;18.13;10.03;;;;;;;5.32;67.60;99967.34;5012256;28;20363;-52
2022/03/21 04:23:22;;;;;;;17.80;10.30;;;;;;;5.29;67.47;99974.47;5011798;28;20200;-51
2022/03/21 04:25:50;;;;;;;19.60;12.00;;;;;;;5.35;67.84;99963.75;5011436;28;20458;-52
2022/03/21 04:28:17;;;;;;;19.93;11.03;;;;;;;5.31;68.41;99970.00;5013076;28;20189;-53
2022/03/21 04:30:44;;;;;;;18.03;9.73;;;;;;;5.30;69.41;99973.53;5012399;28;20225;-49
2022/03/21 04:33:12;;;;;;;17.40;10.37;;;;;;;5.25;69.47;99970.38;5012650;28;20669;-53
2022/03/21 04:35:40;;;;;;;17.87;9.97;;;;;;;5.36;68.48;99974.94;5012253;28;20672;-52
2022/03/21 04:38:13;;;;;;;19.37;10.00;;;;;;;5.43;68.15;99971.91;5012772;28;20235;-52
2022/03/21 04:40:40;;;;;;;17.93;10.07;;;;;;;5.62;66.83;99981.28;5012289;28;20209;-53
2022/03/21 04:43:09;;;;;;;17.50;9.87;;;;;;;5.74;66.90;99978.00;5012689;28;20739;-50
2022/03/21 04:45:36;;;;;;;17.90;8.90;;;;;;;5.86;67.27;99986.00;5011923;28;20217;-52
2022/03/21 04:48:02;;;;;;;19.60;9.53;;;;;;;5.93;67.96;99989.06;5011131;28;20557;-53
2022/03/21 04:50:29;;;;;;;16.90;10.27;;;;;;;5.95;68.39;99990.66;5000097;28;20275;-51
2022/03/21 04:52:56;;;;;;;17.37;10.60;;;;;;;5.96;68.39;99994.06;5001975;28;20199;-53
2022/03/21 04:55:23;;;;;;;17.00;10.10;;;;;;;6.00;67.90;99992.97;5000323;28;20194;-50
2022/03/21 04:57:51;;;;;;;18.67;10.00;;;;;;;6.08;69.46;100000.38;5015367;28;20205;-51
2022/03/21 05:00:19;;;;;;;16.10;9.60;;;;;;;6.13;69.38;99998.34;5001397;28;20202;-52
2022/03/21 05:02:46;;;;;;;17.93;10.33;;;;;;;6.17;69.10;99999.84;5002181;28;20198;-51
2022/03/21 05:05:13;;;;;;;19.23;10.43;;;;;;;6.25;66.89;100007.16;5001872;28;20192;-51
2022/03/21 05:07:41;;;;;;;15.67;9.33;;;;;;;6.35;66.13;100008.28;5000260;28;20560;-52
2022/03/21 05:10:09;;;;;;;16.07;9.60;;;;;;;6.42;65.69;100011.34;4999824;28;20215;-54
2022/03/21 05:12:37;;;;;;;18.23;9.70;;;;;;;6.48;66.83;100011.00;5001748;28;20725;-52
2022/03/21 05:15:05;;;;;;;17.07;9.70;;;;;;;6.48;67.50;100019.63;5001065;28;20194;-51
2022/03/21 05:17:33;;;;;;;22.30;9.90;;;;;;;6.56;66.84;100015.75;4999940;28;20198;-52
2022/03/21 05:20:01;;;;;;;18.03;9.37;;;;;;;6.59;68.60;100011.19;5000632;28;20257;-53
2022/03/21 05:22:28;;;;;;;17.60;9.33;;;;;;;6.57;68.59;100007.03;5001823;28;20269;-53
2022/03/21 05:35:56;;;;;;;16.47;9.80;;;;;;;6.49;70.30;100026.50;4991718;28;20185;-52
2022/03/21 05:38:24;;;;;;;17.50;10.33;;;;;;;6.46;70.36;100020.63;4991978;28;20190;-52
2022/03/21 05:40:52;;;;;;;18.77;10.43;;;;;;;6.43;69.58;100019.06;4991633;28;20701;-52
2022/03/21 05:43:20;;;;;;;16.30;9.93;;;;;;;6.43;70.80;100032.03;4992317;28;20201;-53
2022/03/21 05:45:49;;;;;;;19.47;10.20;;;;;;;6.42;69.74;100034.69;4991349;28;20261;-49
2022/03/21 05:51:01;;;;;;;20.27;10.17;;;;;;;6.51;70.71;100039.34;4991517;28;20227;-50
2022/03/21 05:53:29;;;;;;;18.40;11.17;;;;;;;6.55;71.32;100046.03;4991754;28;20199;-49
2022/03/21 05:55:56;;;;;;;16.13;10.33;;;;;;;6.59;71.24;100042.34;4991352;28;20194;-52
2022/03/21 05:58:23;;;;;;;23.50;11.27;;;;;;;6.64;70.66;100040.31;4991665;28;20285;-50
2022/03/21 06:00:50;;;;;;;17.33;11.30;;;;;;;6.65;71.47;100039.38;4991365;28;20279;-50
2022/03/21 06:03:18;;;;;;;18.13;11.13;;;;;;;6.71;71.51;100045.97;4990680;28;20263;-52
2022/03/21 06:05:45;;;;;;;19.27;11.67;;;;;;;6.76;70.72;100040.50;4991400;28;20212;-54
2022/03/21 06:08:12;;;;;;;19.83;12.07;;;;;;;6.82;70.76;100044.50;4991565;28;20199;-54
2022/03/21 06:10:40;;;;;;;21.70;11.00;;;;;;;6.88;70.25;100046.75;4995048;28;20210;-53
2022/03/21 06:13:07;;;;;;;18.10;10.07;;;;;;;6.91;70.88;100049.97;5010682;28;20252;-53
2022/03/21 06:15:35;;;;;;;18.43;10.90;;;;;;;6.95;70.96;100053.22;5010355;28;20582;-52
2022/03/21 06:18:02;;;;;;;19.13;10.70;;;;;;;7.01;70.57;100055.44;5010813;28;20210;-52
2022/03/21 06:20:30;;;;;;;20.87;12.47;;;;;;;7.07;70.19;100062.03;5010579;28;20204;-49
2022/03/21 06:22:58;;;;;;;20.63;11.33;;;;;;;7.08;70.93;100061.94;5011230;28;20190;-51
2022/03/21 06:25:24;;;;;;;18.63;12.60;;;;;;;7.15;70.81;100061.56;5009559;28;20984;-53
2022/03/21 06:27:51;;;;;;;28.87;14.60;;;;;;;7.15;70.27;100066.75;5010867;28;20230;-53
2022/03/21 06:30:18;;;;;;;44.93;26.20;;;;;;;7.14;70.60;100075.47;5009210;28;20605;-53
2022/03/21 06:32:45;;;;;;;21.70;13.57;;;;;;;7.14;69.30;100071.13;5009634;28;20211;-52
2022/03/21 06:35:12;;;;;;;17.47;10.90;;;;;;;7.23;69.41;100074.91;5010489;28;20193;-52
2022/03/21 06:37:41;;;;;;;17.43;11.07;;;;;;;7.14;70.53;100083.25;5010860;28;20200;-54
2022/03/21 06:40:10;;;;;;;19.90;10.83;;;;;;;7.17;70.37;100072.69;5013404;28;20211;-52
2022/03/21 06:42:36;;;;;;;15.70;9.53;;;;;;;7.19;70.66;100084.66;5014772;28;20187;-52
2022/03/21 06:45:04;;;;;;;17.20;9.47;;;;;;;7.20;71.30;100083.75;5014338;28;20193;-54
2022/03/21 06:47:31;;;;;;;15.33;9.60;;;;;;;7.19;71.75;100076.03;5014516;28;20245;-50
2022/03/21 06:49:58;;;;;;;15.43;10.20;;;;;;;7.20;70.37;100085.47;5014277;28;20704;-53
2022/03/21 06:52:25;;;;;;;18.20;9.37;;;;;;;7.23;71.68;100085.31;5014854;28;20193;-49
2022/03/21 06:54:53;;;;;;;16.33;9.93;;;;;;;7.27;72.09;100088.56;5012891;28;20227;-53
2022/03/21 06:57:21;;;;;;;14.30;8.57;;;;;;;7.27;72.69;100088.56;5014397;28;20219;-51
2022/03/21 06:59:47;;;;;;;12.70;8.40;;;;;;;7.28;72.17;100091.06;5012771;28;20214;-51
2022/03/21 07:02:16;;;;;;;18.20;9.03;;;;;;;7.32;72.54;100091.72;5013147;28;20202;-56
2022/03/21 07:04:44;;;;;;;17.73;11.03;;;;;;;7.37;71.77;100097.47;5014230;28;20194;-56
2022/03/21 07:07:11;;;;;;;22.67;13.53;;;;;;;7.40;71.99;100097.28;5012961;28;20594;-55
2022/03/21 07:09:37;;;;;;;17.67;11.37;;;;;;;7.43;72.12;100097.06;5014029;28;20708;-56
2022/03/21 07:12:07;;;;;;;20.13;11.60;;;;;;;7.45;71.55;100099.59;5014402;28;20265;-55
2022/03/21 07:14:34;;;;;;;21.90;11.13;;;;;;;7.47;71.33;100105.50;5013686;28;20670;-55
2022/03/21 07:17:01;;;;;;;15.73;10.63;;;;;;;7.49;71.30;100099.28;5014179;28;20214;-55
2022/03/21 07:19:28;;;;;;;17.80;12.03;;;;;;;7.50;72.04;100111.34;5014168;28;20192;-56
2022/03/21 07:21:55;;;;;;;18.13;11.20;;;;;;;7.54;72.73;100112.00;5013882;28;20685;-56
2022/03/21 07:24:21;;;;;;;19.30;11.03;;;;;;;7.58;72.56;100115.25;5013691;28;20185;-56
2022/03/21 07:26:48;;;;;;;17.50;10.70;;;;;;;7.60;72.19;100114.22;5013886;28;20204;-54
2022/03/21 07:29:16;;;;;;;21.10;11.83;;;;;;;7.60;72.79;100114.22;5012498;28;20607;-56
2022/03/21 07:31:43;;;;;;;17.70;10.77;;;;;;;7.65;72.64;100117.38;5013471;28;20792;-55
2022/03/21 07:34:10;;;;;;;17.80;11.70;;;;;;;7.68;73.16;100119.78;5013716;28;20235;-56
2022/03/21 07:36:37;;;;;;;20.93;11.30;;;;;;;7.76;72.70;100121.91;5013798;28;20184;-56
2022/03/21 07:39:04;;;;;;;20.47;12.27;;;;;;;7.83;72.61;100125.78;5013863;28;20731;-55
2022/03/21 07:41:31;;;;;;;24.00;13.97;;;;;;;7.95;70.46;100126.75;5013769;28;20197;-55
2022/03/21 07:43:58;;;;;;;22.50;13.73;;;;;;;8.03;69.69;100130.66;5013175;28;20197;-56
2022/03/21 07:49:12;;;;;;;27.60;16.30;;;;;;;8.22;68.76;100128.56;5013589;28;20747;-55
2022/03/21 07:51:43;;;;;;;23.13;15.60;;;;;;;8.37;68.07;100137.16;5012155;28;20207;-55
2022/03/21 07:54:10;;;;;;;26.00;16.90;;;;;;;8.43;67.27;100133.31;5013053;28;20609;-55
2022/03/21 07:56:37;;;;;;;26.83;15.33;;;;;;;8.50;67.29;100138.97;5013317;28;20191;-55
2022/03/21 07:59:04;;;;;;;24.83;15.70;;;;;;;8.59;67.40;100145.34;5013536;28;20197;-55
2022/03/21 08:01:34;;;;;;;31.57;17.07;;;;;;;8.77;63.44;100148.50;5013006;28;20202;-56
2022/03/21 08:04:03;;;;;;;30.20;16.67;;;;;;;8.74;59.95;100151.31;5012619;28;20202;-56
2022/03/21 08:06:30;;;;;;;29.67;17.00;;;;;;;8.80;59.61;100153.50;5013002;28;20211;-56
2022/03/21 08:08:57;;;;;;;32.87;17.40;;;;;;;8.84;58.77;100153.22;5012701;28;20265;-56
2022/03/21 08:11:24;;;;;;;28.97;17.37;;;;;;;8.77;59.80;100157.16;5012915;28;20206;-55
2022/03/21 08:13:51;;;;;;;31.07;17.33;;;;;;;8.86;59.05;100153.09;5013304;28;20198;-54
2022/03/21 08:16:22;;;;;;;30.50;17.77;;;;;;;9.00;59.20;100157.41;5012804;28;20202;-56
2022/03/21 08:18:52;;;;;;;30.40;17.63;;;;;;;8.94;59.97;100157.81;5013124;28;20201;-55
2022/03/21 08:21:19;;;;;;;33.30;17.80;;;;;;;9.08;59.57;100162.91;5012561;28;20201;-56
2022/03/21 08:23:48;;;;;;;27.83;16.97;;;;;;;9.07;59.05;100156.03;5013144;28;20194;-55
2022/03/21 08:26:16;;;;;;;27.53;17.17;;;;;;;9.10;59.35;100155.81;5012508;28;20190;-55
2022/03/21 08:28:44;;;;;;;28.33;16.90;;;;;;;9.14;59.48;100164.28;5012648;28;20245;-56
2022/03/21 08:31:13;;;;;;;27.83;15.27;;;;;;;9.16;59.50;100162.41;5012296;28;20207;-55
2022/03/21 08:33:40;;;;;;;26.40;16.20;;;;;;;9.25;59.17;100163.53;5012862;28;20191;-56
2022/03/21 08:36:08;;;;;;;27.33;16.03;;;;;;;9.35;59.13;100159.38;5012099;28;20513;-55
2022/03/21 08:38:35;;;;;;;25.13;15.37;;;;;;;9.49;58.58;100168.03;5012537;28;20654;-56
2022/03/21 08:41:02;;;;;;;25.87;15.17;;;;;;;9.55;58.68;100160.59;5012187;28;20202;-56
2022/03/21 08:43:29;;;;;;;26.40;15.60;;;;;;;9.66;57.88;100162.47;5012564;28;20679;-56
2022/03/21 08:45:56;;;;;;;26.90;15.20;;;;;;;9.79;55.56;100165.06;5012128;28;20195;-55
2022/03/21 08:49:23;;;;;;;25.73;15.13;;;;;;;9.78;56.62;100159.97;5012819;28;20286;-54
2022/03/21 08:51:12;;;;;;;25.03;15.13;;;;;;;9.95;56.37;100167.44;5011964;28;20225;-56
2022/03/21 08:53:39;;;;;;;25.13;15.53;;;;;;;10.00;54.14;100170.53;5012656;28;20191;-54
2022/03/21 08:56:06;;;;;;;25.00;15.37;;;;;;;10.21;52.46;100169.94;5011842;28;20247;-54
2022/03/21 08:58:33;;;;;;;26.37;15.63;;;;;;;10.22;51.79;100171.59;5012126;28;20187;-54
2022/03/21 09:01:00;;;;;;;28.73;15.47;;;;;;;10.29;49.91;100169.41;5011778;28;20210;-54
2022/03/21 09:03:26;;;;;;;24.87;15.47;;;;;;;10.41;48.95;100167.69;5011945;28;20193;-55
2022/03/21 09:05:53;;;;;;;23.03;14.73;;;;;;;10.53;50.23;100165.97;5011671;28;20583;-55
2022/03/21 09:08:21;;;;;;;26.40;15.50;;;;;;;10.54;50.22;100162.44;5011841;28;20216;-56
2022/03/21 09:10:48;;;;;;;25.70;14.83;;;;;;;10.69;46.84;100166.50;5012231;28;20679;-55
2022/03/21 09:13:15;;;;;;;24.03;14.67;;;;;;;10.78;46.79;100163.19;5012032;28;20265;-55
2022/03/21 09:15:42;;;;;;;29.20;14.67;;;;;;;10.80;46.30;100163.09;5011457;28;20727;-56
2022/03/21 09:18:09;;;;;;;27.67;15.43;;;;;;;10.89;47.28;100166.78;5010285;28;20195;-55
2022/03/21 09:20:36;;;;;;;29.43;15.80;;;;;;;10.93;47.20;100157.78;5011449;28;20211;-56
2022/03/21 09:23:03;;;;;;;27.77;16.03;;;;;;;10.92;49.17;100156.13;5010565;28;20196;-55
2022/03/21 09:25:31;;;;;;;28.83;16.33;;;;;;;11.12;49.27;100159.00;5011388;28;20196;-55
2022/03/21 09:27:58;;;;;;;32.53;16.23;;;;;;;11.07;49.28;100154.13;5011931;28;20610;-55
2022/03/21 09:30:25;;;;;;;25.20;15.37;;;;;;;11.12;48.57;100151.16;5011318;28;20224;-56
2022/03/21 09:32:52;;;;;;;25.03;15.53;;;;;;;11.22;48.07;100152.13;5011671;28;20200;-56
2022/03/21 09:35:19;;;;;;;31.50;16.53;;;;;;;11.23;48.88;100153.78;5011223;28;20216;-53
2022/03/21 09:37:46;;;;;;;31.50;18.10;;;;;;;11.25;49.23;100158.88;5011512;28;20644;-54
2022/03/21 09:40:13;;;;;;;28.43;17.17;;;;;;;11.39;50.41;100155.25;5010932;28;20215;-55
2022/03/21 09:42:42;;;;;;;32.50;17.50;;;;;;;11.46;49.71;100156.44;5011312;28;20192;-55
2022/03/21 09:45:11;;;;;;;26.07;14.70;;;;;;;11.43;50.36;100160.09;5011148;28;20189;-54
2022/03/21 09:50:30;;;;;;;27.13;15.33;;;;;;;11.48;48.59;100146.69;5010917;28;20707;-54
2022/03/21 09:52:59;;;;;;;30.67;17.13;;;;;;;11.48;52.44;100150.13;5010804;28;20265;-55
2022/03/21 09:55:25;;;;;;;27.63;15.43;;;;;;;11.66;49.63;100145.22;5010815;28;20193;-55
2022/03/21 09:57:53;;;;;;;24.30;15.97;;;;;;;11.50;49.43;100144.78;5011277;28;20672;-55
2022/03/21 10:00:20;;;;;;;26.47;15.87;;;;;;;11.61;49.54;100136.09;5011151;28;20205;-55
2022/03/21 10:02:47;;;;;;;27.53;15.83;;;;;;;11.57;49.22;100139.91;5011411;28;20198;-54
2022/03/21 10:05:34;;;;;;;25.50;15.97;;;;;;;11.62;48.91;100137.75;5011022;28;20193;-55
2022/03/21 10:08:14;;;;;;;29.30;16.20;;;;;;;11.78;49.42;100137.38;5011000;28;20811;-54
2022/03/21 10:10:42;;;;;;;29.37;16.13;;;;;;;11.74;50.30;100138.56;5010671;28;20210;-55
2022/03/21 10:13:10;;;;;;;27.90;16.63;;;;;;;11.80;51.24;100131.06;5010758;28;20688;-54
2022/03/21 10:15:38;;;;;;;31.63;17.23;;;;;;;11.87;49.94;100130.59;5010211;28;20192;-55
2022/03/21 10:18:06;;;;;;;31.63;17.67;;;;;;;12.06;48.41;100128.19;5010776;28;20200;-55
2022/03/21 10:20:33;;;;;;;31.20;16.80;;;;;;;11.99;50.13;100123.53;5010716;28;20565;-55
2022/03/21 10:23:16;;;;;;;24.20;15.87;;;;;;;12.13;49.25;100125.09;5011081;28;20212;-55
2022/03/21 10:25:43;;;;;;;29.63;16.20;;;;;;;12.23;49.08;100120.75;5010588;28;20192;-54
2022/03/21 10:28:11;;;;;;;28.63;17.17;;;;;;;12.34;49.32;100127.75;5010437;28;20280;-55
2022/03/21 10:30:44;;;;;;;24.10;15.93;;;;;;;12.45;48.67;100125.06;5010364;28;20208;-55
2022/03/21 10:33:11;;;;;;;25.70;15.77;;;;;;;12.40;48.57;100122.81;5011107;28;20320;-55
2022/03/21 10:35:46;;;;;;;25.83;14.97;;;;;;;12.36;47.60;100131.06;5010467;28;20189;-55
2022/03/21 10:38:13;;;;;;;29.20;16.17;;;;;;;12.22;47.77;100127.78;5009471;28;20671;-55
2022/03/21 10:40:45;;;;;;;25.73;15.33;;;;;;;12.44;48.04;100120.78;5008493;28;20213;-54
2022/03/21 10:43:14;;;;;;;30.53;16.67;;;;;;;12.43;47.93;100124.38;5007654;28;20202;-55
2022/03/21 10:45:44;;;;;;;26.60;16.13;;;;;;;12.64;47.89;100126.19;5006267;28;20186;-54
2022/03/21 10:48:13;;;;;;;28.53;15.70;;;;;;;12.55;48.20;100115.50;5007869;28;20218;-55
2022/03/21 10:50:42;;;;;;;26.73;16.33;;;;;;;12.68;47.74;100115.31;5002991;28;20276;-56
2022/03/21 10:53:11;;;;;;;29.83;15.80;;;;;;;12.70;48.24;100110.78;5010046;28;20201;-55
2022/03/21 10:55:39;;;;;;;25.50;15.90;;;;;;;12.80;48.99;100112.63;5003687;28;20278;-55
2022/03/21 10:58:07;;;;;;;28.33;16.17;;;;;;;12.85;49.09;100107.84;5008530;28;20558;-55
2022/03/21 11:00:36;;;;;;;28.70;16.03;;;;;;;12.87;48.62;100111.16;5006870;28;20228;-54
2022/03/21 11:03:06;;;;;;;25.23;14.10;;;;;;;13.25;51.54;100101.81;5005622;28;20569;-44
2022/03/21 11:05:36;;;;;;;23.97;14.63;;;;;;;13.51;49.76;100104.00;5005489;28;20569;-42
2022/03/21 11:08:03;;;;;;;26.60;16.17;;;;;;;13.64;49.11;100100.31;5008724;28;20274;-44
2022/03/21 11:10:30;;;;;;;29.13;16.83;;;;;;;13.77;47.59;100102.72;5000515;28;20216;-55
2022/03/21 11:13:01;;;;;;;28.07;16.67;;;;;;;13.82;48.10;100095.22;4991026;28;20448;-55
2022/03/21 11:15:28;;;;;;;27.23;16.60;;;;;;;13.34;46.49;100087.09;4990711;28;20196;-57
2022/03/21 11:17:57;;;;;;;26.07;16.30;;;;;;;13.64;46.57;100089.81;4991062;28;20182;-56
2022/03/21 11:20:24;;;;;;;31.67;16.77;;;;;;;13.34;45.95;100088.84;4990429;28;20203;-51
2022/03/21 11:22:53;;;;;;;32.50;17.17;;;;;;;13.50;46.70;100083.97;4990868;28;20199;-55
2022/03/21 11:25:22;;;;;;;28.87;16.93;;;;;;;13.58;46.58;100081.50;5006395;28;20192;-54
2022/03/21 11:28:04;;;;;;;27.03;17.10;;;;;;;13.55;47.16;100075.72;5014450;28;20202;-51
2022/03/21 11:30:43;;;;;;;29.90;17.10;;;;;;;13.80;46.96;100079.63;5002351;28;20709;-51
2022/03/21 11:33:23;;;;;;;28.50;17.97;;;;;;;13.89;46.71;100070.09;5007087;28;20841;-54
2022/03/21 11:35:52;;;;;;;28.93;16.77;;;;;;;14.06;45.42;100073.84;5005339;28;20200;-50
2022/03/21 11:38:24;;;;;;;26.53;16.20;;;;;;;14.19;44.46;100065.69;5005013;28;20198;-52
2022/03/21 11:40:51;;;;;;;26.70;16.13;;;;;;;14.31;44.65;100071.63;4993319;28;20297;-53
2022/03/21 11:43:30;;;;;;;27.90;16.53;;;;;;;14.21;44.96;100062.94;4993809;28;20267;-53
2022/03/21 11:45:57;;;;;;;32.10;16.80;;;;;;;14.29;44.92;100063.88;5011147;28;20204;-53